Time;durP1;ratioP1;P1;durP2;ratioP2;P2;SDS_P1;SDS_P2;PMS_P1;PMS_P2;Temp;Humidity;BMP_temperature;BMP_pressure;BME280_temperature;BME280_humidity;BME280_pressure;Samples;Min_cycle;Max_cycle;Signal;HPM_P1;HPM_P2
2021/12/27 00:01:09;;;;;;;4.00;3.10;;;;;;;6.00;100.00;99165.03;5054818;28;20024;-48
2021/12/27 00:03:35;;;;;;;7.20;2.58;;;;;;;6.01;100.00;99152.69;5059720;28;20029;-47
2021/12/27 00:06:00;;;;;;;5.93;3.35;;;;;;;6.01;100.00;99150.03;5049122;28;20490;-50
2021/12/27 00:08:26;;;;;;;10.68;2.00;;;;;;;6.00;100.00;99153.69;5055102;28;20083;-49
2021/12/27 00:10:51;;;;;;;3.33;1.88;;;;;;;6.00;100.00;99143.16;5059751;28;20025;-48
2021/12/27 00:13:17;;;;;;;6.03;2.95;;;;;;;5.97;100.00;99138.31;5065707;28;20133;-49
2021/12/27 00:15:43;;;;;;;3.30;2.22;;;;;;;5.99;100.00;99121.31;5057275;28;20482;-50
2021/12/27 00:18:09;;;;;;;4.05;2.35;;;;;;;6.00;100.00;99122.13;5066498;28;20036;-49
2021/12/27 00:20:35;;;;;;;3.33;1.90;;;;;;;5.99;100.00;99120.47;5062385;28;20036;-50
2021/12/27 00:23:00;;;;;;;4.03;2.42;;;;;;;5.98;100.00;99129.38;5057129;28;20101;-48
2021/12/27 00:25:28;;;;;;;4.10;2.05;;;;;;;5.98;100.00;99113.59;5064334;28;20048;-49
2021/12/27 00:27:53;;;;;;;8.93;2.75;;;;;;;5.98;100.00;99113.59;5052721;28;20037;-51
2021/12/27 00:30:20;;;;;;;9.73;3.15;;;;;;;5.97;100.00;99106.72;5047988;28;20021;-50
2021/12/27 00:32:46;;;;;;;5.90;3.28;;;;;;;5.98;100.00;99108.34;5065390;28;20039;-48
2021/12/27 00:35:14;;;;;;;3.78;1.95;;;;;;;5.97;100.00;99099.63;5048083;28;20021;-50
2021/12/27 00:37:40;;;;;;;4.05;2.20;;;;;;;5.98;100.00;99100.44;5054398;28;20047;-51
2021/12/27 00:40:08;;;;;;;5.55;2.97;;;;;;;5.98;100.00;99098.63;5048469;28;20500;-50
2021/12/27 00:42:33;;;;;;;21.45;3.78;;;;;;;5.97;100.00;99093.56;5053372;28;20036;-49
2021/12/27 00:44:59;;;;;;;4.07;2.42;;;;;;;5.98;100.00;99092.56;5059371;28;20043;-49
2021/12/27 00:47:24;;;;;;;6.60;2.92;;;;;;;5.97;100.00;99086.50;5067674;28;20073;-48
2021/12/27 00:49:50;;;;;;;12.80;4.72;;;;;;;5.96;100.00;99087.47;5048283;28;20115;-51
2021/12/27 00:52:15;;;;;;;10.40;3.40;;;;;;;5.97;100.00;99085.69;5051814;28;20024;-51
2021/12/27 00:54:40;;;;;;;8.13;3.33;;;;;;;5.98;100.00;99092.56;5049167;28;20029;-47
2021/12/27 00:57:06;;;;;;;8.40;4.07;;;;;;;5.98;100.00;99087.28;5050148;28;20044;-51
2021/12/27 00:59:31;;;;;;;9.05;2.63;;;;;;;5.98;100.00;99097.81;5064777;28;20036;-48
2021/12/27 01:01:57;;;;;;;7.20;2.67;;;;;;;5.98;100.00;99089.94;5065188;28;20470;-48
2021/12/27 01:04:23;;;;;;;9.07;4.47;;;;;;;6.00;100.00;99082.66;5066279;28;20640;-49
2021/12/27 01:06:49;;;;;;;11.52;2.72;;;;;;;5.99;100.00;99086.28;5051648;28;20036;-50
2021/12/27 01:09:24;;;;;;;5.88;2.50;;;;;;;6.00;100.00;99080.03;5065331;28;20038;-48
2021/12/27 01:14:43;;;;;;;5.57;3.28;;;;;;;6.01;100.00;99073.75;5050171;28;20052;-49
2021/12/27 01:17:09;;;;;;;4.03;2.50;;;;;;;6.01;100.00;99066.66;5050130;28;20100;-49
2021/12/27 01:19:34;;;;;;;8.32;4.63;;;;;;;6.02;100.00;99072.75;5049397;28;20037;-49
2021/12/27 01:22:00;;;;;;;7.70;4.03;;;;;;;6.03;100.00;99066.47;5049037;28;20057;-52
2021/12/27 01:24:25;;;;;;;6.65;3.45;;;;;;;6.04;100.00;99063.66;5065933;28;20052;-49
2021/12/27 01:26:51;;;;;;;11.77;3.58;;;;;;;6.06;100.00;99068.69;5065969;28;20103;-46
2021/12/27 01:29:16;;;;;;;4.55;2.65;;;;;;;6.06;100.00;99058.19;5052007;28;20048;-53
2021/12/27 01:31:41;;;;;;;8.73;4.55;;;;;;;6.07;100.00;99058.00;5060117;28;20432;-47
2021/12/27 01:34:09;;;;;;;8.88;3.55;;;;;;;6.09;100.00;99057.78;5052696;28;20045;-50
2021/12/27 01:36:34;;;;;;;8.20;4.07;;;;;;;6.10;100.00;99044.44;5047255;28;20089;-52
2021/12/27 01:39:00;;;;;;;7.65;4.38;;;;;;;6.11;100.00;99045.25;5053198;28;20037;-49
2021/12/27 01:41:26;;;;;;;7.55;3.60;;;;;;;6.13;100.00;99048.50;5054363;28;20032;-51
2021/12/27 01:43:52;;;;;;;6.28;4.18;;;;;;;6.15;100.00;99050.94;5052339;28;20043;-50
2021/12/27 01:46:20;;;;;;;5.38;3.38;;;;;;;6.18;100.00;99040.00;5060158;28;20521;-50
2021/12/27 01:48:54;;;;;;;9.55;4.25;;;;;;;6.19;100.00;99042.44;5055625;28;20040;-49
2021/12/27 01:51:21;;;;;;;4.55;3.10;;;;;;;6.19;100.00;99037.16;5047516;28;20065;-52
2021/12/27 01:53:47;;;;;;;6.90;3.40;;;;;;;6.19;100.00;99037.16;5051985;28;20090;-51
2021/12/27 01:56:15;;;;;;;6.65;4.07;;;;;;;6.21;100.00;99040.41;5055681;28;20028;-52
2021/12/27 01:58:41;;;;;;;6.70;3.33;;;;;;;6.23;100.00;99038.41;5056470;28;20037;-47
2021/12/27 02:01:09;;;;;;;6.40;3.65;;;;;;;6.23;100.00;99034.97;5054673;28;20074;-49
2021/12/27 02:03:35;;;;;;;7.95;3.65;;;;;;;6.23;100.00;99022.63;5056845;28;20453;-54
2021/12/27 02:06:01;;;;;;;9.73;4.70;;;;;;;6.25;100.00;99014.53;5046540;28;20162;-52
2021/12/27 02:08:27;;;;;;;5.80;3.55;;;;;;;6.24;100.00;99011.06;5060080;28;20036;-51
2021/12/27 02:10:53;;;;;;;6.75;3.47;;;;;;;6.21;100.00;99008.03;5065510;28;20036;-49
2021/12/27 02:13:18;;;;;;;5.55;3.47;;;;;;;6.14;100.00;99008.00;5065141;28;20033;-51
2021/12/27 02:15:44;;;;;;;7.55;3.80;;;;;;;6.11;100.00;98997.88;5055065;28;20082;-46
2021/12/27 02:18:10;;;;;;;9.10;4.85;;;;;;;6.10;100.00;98996.25;5051747;28;20032;-48
2021/12/27 02:20:38;;;;;;;5.55;3.92;;;;;;;6.07;100.00;98988.78;5046758;28;20033;-49
2021/12/27 02:23:10;;;;;;;5.53;3.85;;;;;;;6.06;100.00;98984.50;5056049;28;20062;-48
2021/12/27 02:25:36;;;;;;;7.95;3.70;;;;;;;5.99;100.00;98978.41;5065565;28;20729;-48
2021/12/27 02:28:05;;;;;;;7.90;3.65;;;;;;;5.99;100.00;98978.41;5060860;28;20032;-48
2021/12/27 02:30:31;;;;;;;14.38;4.20;;;;;;;5.97;100.00;98975.19;5045365;28;20736;-50
2021/12/27 02:33:00;;;;;;;5.05;3.15;;;;;;;5.92;100.00;98961.78;5060812;28;20055;-49
2021/12/27 02:35:32;;;;;;;6.18;3.17;;;;;;;5.83;100.00;98967.19;5056258;28;20032;-48
2021/12/27 02:37:59;;;;;;;3.28;2.92;;;;;;;5.75;100.00;98959.47;5051502;28;20433;-50
2021/12/27 02:40:29;;;;;;;5.90;3.33;;;;;;;5.65;100.00;98978.28;5048964;28;20028;-51
2021/12/27 02:43:03;;;;;;;5.20;3.35;;;;;;;5.53;100.00;98973.75;5062648;28;20086;-48
2021/12/27 02:45:32;;;;;;;6.90;3.90;;;;;;;5.41;100.00;98971.66;5053233;28;20453;-48
2021/12/27 02:47:58;;;;;;;6.35;3.50;;;;;;;5.39;100.00;98963.16;5061915;28;20033;-48
2021/12/27 02:50:25;;;;;;;6.40;2.45;;;;;;;5.39;100.00;98964.97;5046636;28;20501;-50
2021/12/27 02:52:51;;;;;;;5.28;2.00;;;;;;;5.37;100.00;98970.44;5053795;28;20051;-52
2021/12/27 02:55:17;;;;;;;5.75;3.33;;;;;;;5.44;100.00;98973.91;5063065;28;20107;-50
2021/12/27 02:57:47;;;;;;;10.25;3.97;;;;;;;5.53;100.00;98973.75;5052736;28;20452;-47
2021/12/27 03:00:16;;;;;;;5.75;3.75;;;;;;;5.63;100.00;98974.22;5065070;28;20058;-49
2021/12/27 03:02:43;;;;;;;9.88;3.88;;;;;;;5.71;100.00;98967.97;5065130;28;20025;-47
2021/12/27 03:05:10;;;;;;;4.38;3.13;;;;;;;5.73;100.00;98966.78;5064008;28;20067;-48
2021/12/27 03:07:37;;;;;;;3.35;2.75;;;;;;;5.76;100.00;98963.75;5053506;28;20771;-47
2021/12/27 03:10:03;;;;;;;7.63;4.32;;;;;;;5.78;100.00;98960.91;5047462;28;20025;-50
2021/12/27 03:12:28;;;;;;;7.97;3.67;;;;;;;5.80;100.00;98964.16;5063364;28;20598;-51
2021/12/27 03:14:54;;;;;;;8.82;3.00;;;;;;;5.81;100.00;98961.34;5053122;28;20036;-49
2021/12/27 03:17:19;;;;;;;4.95;3.13;;;;;;;5.83;100.00;98969.81;5066333;28;20192;-50
2021/12/27 03:19:44;;;;;;;10.13;3.47;;;;;;;5.83;100.00;98966.38;5054386;28;20035;-50
2021/12/27 03:22:10;;;;;;;7.78;2.97;;;;;;;5.84;100.00;98975.91;5063232;28;20033;-47
2021/12/27 03:24:35;;;;;;;8.30;5.15;;;;;;;5.83;100.00;98967.19;5067186;28;20401;-48
2021/12/27 03:27:00;;;;;;;4.03;2.50;;;;;;;5.85;100.00;98970.44;5066920;28;20032;-48
2021/12/27 03:29:26;;;;;;;6.95;3.15;;;;;;;5.86;100.00;98964.19;5054006;28;20033;-50
2021/12/27 03:31:54;;;;;;;7.80;4.05;;;;;;;5.87;100.00;98968.44;5057003;28;20037;-48
2021/12/27 03:34:20;;;;;;;9.93;3.15;;;;;;;5.90;100.00;98964.59;5065182;28;20055;-50
2021/12/27 03:36:47;;;;;;;9.75;2.85;;;;;;;5.91;100.00;98960.94;5068009;28;20506;-47
2021/12/27 03:39:13;;;;;;;6.30;3.58;;;;;;;5.93;100.00;98953.66;5052017;28;20039;-51
2021/12/27 03:41:39;;;;;;;6.95;2.38;;;;;;;5.95;100.00;98951.69;5062102;28;20017;-50
2021/12/27 03:44:04;;;;;;;22.60;3.83;;;;;;;5.96;100.00;98941.97;5064837;28;20086;-48
2021/12/27 03:46:29;;;;;;;4.50;2.10;;;;;;;5.97;100.00;98943.59;5067861;28;20040;-48
2021/12/27 03:48:56;;;;;;;10.52;2.72;;;;;;;5.98;100.00;98945.22;5061121;28;20044;-49
2021/12/27 03:51:22;;;;;;;8.77;2.03;;;;;;;5.99;100.00;98945.03;5056954;28;20082;-53
2021/12/27 03:53:47;;;;;;;10.35;2.67;;;;;;;6.00;100.00;98944.00;5054887;28;20033;-51
2021/12/27 03:56:13;;;;;;;8.30;2.65;;;;;;;6.00;100.00;98938.75;5058226;28;20449;-50
2021/12/27 03:58:56;;;;;;;6.85;2.30;;;;;;;6.02;100.00;98936.75;5067898;28;20056;-50
2021/12/27 04:01:23;;;;;;;6.15;2.72;;;;;;;6.03;100.00;98937.53;5066183;28;20028;-49
2021/12/27 04:03:53;;;;;;;5.82;1.67;;;;;;;6.04;100.00;98931.25;5058666;28;20600;-50
2021/12/27 04:06:21;;;;;;;3.72;2.03;;;;;;;6.05;100.00;98925.00;5049137;28;20620;-51
2021/12/27 04:08:47;;;;;;;4.47;1.98;;;;;;;6.06;100.00;98910.81;5057031;28;20033;-47
2021/12/27 04:11:13;;;;;;;4.72;2.22;;;;;;;6.06;100.00;98916.09;5050140;28;20122;-50
2021/12/27 04:13:39;;;;;;;1.95;1.55;;;;;;;6.06;100.00;98919.53;5056712;28;20033;-49
2021/12/27 04:16:04;;;;;;;5.03;2.03;;;;;;;6.06;100.00;98913.44;5051205;28;20037;-48
2021/12/27 04:18:30;;;;;;;4.22;2.22;;;;;;;6.07;100.00;98910.63;5056656;28;20078;-52
2021/12/27 04:20:55;;;;;;;2.15;1.35;;;;;;;6.09;100.00;98911.25;5058625;28;20032;-47
2021/12/27 04:23:21;;;;;;;4.47;1.35;;;;;;;6.10;100.00;98909.44;5056379;28;20420;-50
2021/12/27 04:25:47;;;;;;;2.38;1.25;;;;;;;6.11;100.00;98914.47;5048902;28;20036;-49
2021/12/27 04:28:13;;;;;;;3.10;1.60;;;;;;;6.11;100.00;98916.28;5055695;28;20032;-48
2021/12/27 04:30:39;;;;;;;5.57;1.67;;;;;;;6.12;100.00;98917.94;5048792;28;20028;-49
2021/12/27 04:33:05;;;;;;;5.82;2.55;;;;;;;6.13;100.00;98913.47;5057929;28;20037;-50
2021/12/27 04:35:32;;;;;;;2.92;1.77;;;;;;;6.16;100.00;98916.50;5047815;28;20401;-51
2021/12/27 04:37:58;;;;;;;5.32;2.15;;;;;;;6.18;100.00;98905.78;5053710;28;20119;-49
2021/12/27 04:40:27;;;;;;;7.82;2.85;;;;;;;6.18;100.00;98903.97;5048467;28;20025;-49
2021/12/27 04:43:00;;;;;;;6.10;1.90;;;;;;;6.19;100.00;98894.25;5056306;28;20077;-50
2021/12/27 04:45:26;;;;;;;6.10;2.15;;;;;;;6.19;100.00;98884.53;5054429;28;20032;-50
2021/12/27 04:47:52;;;;;;;9.00;2.70;;;;;;;6.19;100.00;98879.25;5067272;28;20032;-48
2021/12/27 04:50:17;;;;;;;7.70;2.78;;;;;;;6.19;100.00;98879.25;5064083;28;20033;-55
2021/12/27 04:52:43;;;;;;;8.18;2.10;;;;;;;6.21;100.00;98871.97;5067650;28;20029;-48
2021/12/27 04:55:09;;;;;;;4.35;2.65;;;;;;;6.23;100.00;98872.59;5048034;28;20033;-51
2021/12/27 04:57:35;;;;;;;6.63;3.17;;;;;;;6.24;100.00;98876.84;5054668;28;20056;-48
2021/12/27 05:00:01;;;;;;;4.05;2.20;;;;;;;6.24;100.00;98862.88;5065241;28;20072;-47
2021/12/27 05:02:27;;;;;;;5.03;3.55;;;;;;;6.26;100.00;98855.59;5067026;28;20025;-48
2021/12/27 05:04:53;;;;;;;6.82;3.90;;;;;;;6.26;100.00;98843.22;5050727;28;20600;-51
2021/12/27 05:07:19;;;;;;;6.85;2.45;;;;;;;6.26;100.00;98843.22;5048315;28;20523;-50
2021/12/27 05:09:45;;;;;;;8.00;2.85;;;;;;;6.26;100.00;98832.69;5063198;28;20032;-49
2021/12/27 05:12:10;;;;;;;7.85;2.42;;;;;;;6.27;100.00;98820.34;5052263;28;20059;-48
2021/12/27 05:14:35;;;;;;;9.00;2.40;;;;;;;6.27;100.00;98820.34;5064525;28;20068;-48
2021/12/27 05:17:01;;;;;;;8.80;3.17;;;;;;;6.25;100.00;98812.66;5049626;28;20075;-51
2021/12/27 05:19:26;;;;;;;8.82;3.95;;;;;;;6.22;100.00;98805.19;5066845;28;20032;-51
2021/12/27 05:21:52;;;;;;;5.30;3.22;;;;;;;6.19;100.00;98804.75;5051714;28;20040;-53
2021/12/27 05:24:18;;;;;;;5.68;2.78;;;;;;;6.17;100.00;98797.09;5055343;28;20489;-49
2021/12/27 05:26:44;;;;;;;3.85;2.38;;;;;;;6.11;100.00;98797.88;5047931;28;20037;-48
2021/12/27 05:29:10;;;;;;;5.60;2.72;;;;;;;6.09;100.00;98786.75;5064018;28;20035;-50
2021/12/27 05:31:37;;;;;;;5.45;2.83;;;;;;;6.07;100.00;98778.28;5053325;28;20029;-50
2021/12/27 05:34:02;;;;;;;6.22;3.17;;;;;;;6.03;100.00;98785.75;5059531;28;20036;-48
2021/12/27 05:36:28;;;;;;;2.45;1.25;;;;;;;6.01;100.00;98781.69;5066104;28;20035;-49
2021/12/27 05:38:53;;;;;;;4.25;1.92;;;;;;;5.99;100.00;98781.06;5059638;28;20555;-51
2021/12/27 05:41:18;;;;;;;1.95;1.73;;;;;;;5.99;100.00;98779.28;5055466;28;20037;-48
2021/12/27 05:43:44;;;;;;;6.10;1.42;;;;;;;5.97;100.00;98776.03;5047408;28;20053;-47
2021/12/27 05:46:09;;;;;;;3.67;3.38;;;;;;;5.99;100.00;98763.50;5065195;28;20031;-48
2021/12/27 05:48:35;;;;;;;3.40;2.47;;;;;;;6.01;100.00;98760.66;5063949;28;20028;-50
2021/12/27 05:51:00;;;;;;;2.83;2.03;;;;;;;5.98;100.00;98753.16;5056672;28;20032;-53
2021/12/27 05:53:25;;;;;;;2.75;1.60;;;;;;;5.95;100.00;98745.69;5054624;28;20029;-51
2021/12/27 05:55:51;;;;;;;3.22;2.00;;;;;;;5.95;100.00;98753.56;5047211;28;20041;-51
2021/12/27 05:58:16;;;;;;;3.78;2.00;;;;;;;5.94;100.00;98749.31;5055083;28;20555;-50
2021/12/27 06:00:42;;;;;;;4.82;2.75;;;;;;;5.94;100.00;98749.31;5050214;28;20036;-52
2021/12/27 06:03:07;;;;;;;4.75;3.03;;;;;;;5.95;100.00;98748.31;5063031;28;20480;-50
2021/12/27 06:05:33;;;;;;;4.88;1.88;;;;;;;5.97;100.00;98741.03;5059406;28;20127;-48
2021/12/27 06:07:59;;;;;;;3.83;1.88;;;;;;;5.97;100.00;98738.41;5065737;28;20120;-47
2021/12/27 06:10:24;;;;;;;3.92;2.33;;;;;;;5.96;100.00;98734.13;5062281;28;20044;-51
2021/12/27 06:12:50;;;;;;;6.22;2.70;;;;;;;5.96;100.00;98721.78;5063747;28;20523;-47
2021/12/27 06:15:15;;;;;;;5.10;2.83;;;;;;;5.97;100.00;98722.63;5047608;28;20029;-49
2021/12/27 06:17:42;;;;;;;4.13;2.20;;;;;;;6.00;100.00;98716.94;5062052;28;20115;-49
2021/12/27 06:20:10;;;;;;;3.70;1.88;;;;;;;6.03;100.00;98712.06;5049194;28;20486;-52
2021/12/27 06:22:39;;;;;;;3.30;1.73;;;;;;;6.04;100.00;98708.44;5067088;28;20033;-49
2021/12/27 06:25:05;;;;;;;1.55;1.10;;;;;;;6.02;100.00;98707.84;5049130;28;20536;-49
2021/12/27 06:27:32;;;;;;;2.78;1.58;;;;;;;6.04;100.00;98708.44;5066318;28;20029;-53
2021/12/27 06:29:59;;;;;;;2.40;1.15;;;;;;;6.07;100.00;98702.75;5058750;28;20032;-48
2021/12/27 06:32:24;;;;;;;4.85;3.05;;;;;;;6.07;100.00;98701.97;5046572;28;20386;-51
2021/12/27 06:34:50;;;;;;;5.05;1.58;;;;;;;6.05;100.00;98688.19;5059185;28;20033;-52
2021/12/27 06:37:15;;;;;;;8.90;2.65;;;;;;;6.03;100.00;98684.97;5065465;28;20028;-48
2021/12/27 06:39:40;;;;;;;6.72;2.03;;;;;;;6.07;100.00;98675.66;5076533;28;20043;-50
2021/12/27 06:42:06;;;;;;;10.60;1.55;;;;;;;6.08;100.00;98683.31;5065024;28;20033;-50
2021/12/27 06:44:32;;;;;;;4.70;1.85;;;;;;;6.11;100.00;98679.47;5053353;28;20441;-51
2021/12/27 06:46:59;;;;;;;7.05;1.77;;;;;;;6.13;100.00;98674.00;5049088;28;20477;-47
2021/12/27 06:49:26;;;;;;;2.05;1.83;;;;;;;6.16;100.00;98676.22;5062682;28;20149;-49
2021/12/27 06:51:52;;;;;;;4.60;2.00;;;;;;;6.17;100.00;98676.03;5055741;28;20500;-47
2021/12/27 06:54:17;;;;;;;7.65;1.85;;;;;;;6.21;100.00;98665.88;5055847;28;20067;-49
2021/12/27 06:56:42;;;;;;;4.68;3.20;;;;;;;6.24;100.00;98668.91;5050881;28;20028;-52
2021/12/27 06:59:08;;;;;;;4.10;2.63;;;;;;;6.23;100.00;98659.41;5060446;28;20498;-52
2021/12/27 07:01:33;;;;;;;4.55;2.15;;;;;;;6.27;100.00;98655.34;5061575;28;20107;-49
2021/12/27 07:03:58;;;;;;;5.53;2.08;;;;;;;6.26;100.00;98658.19;5068804;28;20060;-47
2021/12/27 07:06:24;;;;;;;8.85;3.35;;;;;;;6.31;100.00;98650.47;5058093;28;20078;-48
2021/12/27 07:08:49;;;;;;;5.57;2.92;;;;;;;6.33;100.00;98651.06;5060537;28;20435;-48
2021/12/27 07:11:14;;;;;;;3.67;2.65;;;;;;;6.36;100.00;98652.50;5051273;28;20474;-49
2021/12/27 07:13:40;;;;;;;7.25;3.17;;;;;;;6.36;100.00;98652.50;5060786;28;20529;-50
2021/12/27 07:16:05;;;;;;;3.70;2.90;;;;;;;6.37;100.00;98643.56;5049692;28;20626;-47
2021/12/27 07:18:31;;;;;;;7.38;4.40;;;;;;;6.40;100.00;98646.59;5060148;28;20025;-49
2021/12/27 07:20:56;;;;;;;8.88;3.67;;;;;;;6.40;100.00;98640.50;5049956;28;20083;-50
2021/12/27 07:23:22;;;;;;;7.03;2.60;;;;;;;6.40;100.00;98636.06;5059639;28;20102;-50
2021/12/27 07:25:47;;;;;;;7.43;2.38;;;;;;;6.42;100.00;98636.66;5062140;28;20033;-50
2021/12/27 07:28:13;;;;;;;4.72;1.83;;;;;;;6.47;100.00;98641.28;5059858;28;20113;-50
2021/12/27 07:30:39;;;;;;;6.63;2.97;;;;;;;6.49;100.00;98631.38;5063440;28;20025;-47
2021/12/27 07:33:05;;;;;;;5.15;2.90;;;;;;;6.49;100.00;98631.38;5056754;28;20060;-48
2021/12/27 07:35:31;;;;;;;6.13;2.58;;;;;;;6.50;100.00;98619.81;5059817;28;20033;-51
2021/12/27 07:37:56;;;;;;;3.33;2.55;;;;;;;6.51;100.00;98624.88;5059512;28;20425;-49
2021/12/27 07:40:22;;;;;;;3.25;2.47;;;;;;;6.54;100.00;98610.47;5066463;28;20035;-49
2021/12/27 07:42:47;;;;;;;8.40;2.85;;;;;;;6.54;100.00;98607.84;5062691;28;20061;-49
2021/12/27 07:45:12;;;;;;;2.42;1.85;;;;;;;6.54;100.00;98607.84;5054978;28;20315;-48
2021/12/27 07:47:38;;;;;;;19.45;5.53;;;;;;;6.54;100.00;98602.59;5068788;28;20370;-50
2021/12/27 07:50:05;;;;;;;6.05;2.75;;;;;;;6.52;100.00;98608.06;5067254;28;20036;-51
2021/12/27 07:52:31;;;;;;;6.07;3.03;;;;;;;6.53;100.00;98611.47;5055361;28;20031;-49
2021/12/27 07:54:56;;;;;;;5.50;3.47;;;;;;;6.53;100.00;98601.78;5053736;28;20028;-49
2021/12/27 07:57:21;;;;;;;6.13;4.28;;;;;;;6.56;100.00;98605.81;5054168;28;20035;-53
2021/12/27 07:59:50;;;;;;;3.60;2.25;;;;;;;6.56;100.00;98600.56;5057747;28;20039;-49
2021/12/27 08:02:16;;;;;;;3.88;3.00;;;;;;;6.58;100.00;98603.75;5067833;28;20036;-49
2021/12/27 08:04:42;;;;;;;7.38;3.22;;;;;;;6.58;100.00;98603.75;5055778;28;20028;-49
2021/12/27 08:07:07;;;;;;;6.93;4.85;;;;;;;6.59;100.00;98600.13;5052625;28;20066;-52
2021/12/27 08:09:33;;;;;;;3.97;3.00;;;;;;;6.60;100.00;98601.72;5057574;28;20064;-51
2021/12/27 08:11:59;;;;;;;7.60;3.75;;;;;;;6.62;100.00;98610.22;5049918;28;20029;-51
2021/12/27 08:14:24;;;;;;;8.27;3.88;;;;;;;6.63;100.00;98611.84;5055958;28;20170;-49
2021/12/27 08:16:50;;;;;;;5.97;3.03;;;;;;;6.64;100.00;98605.56;5048646;28;20044;-53
2021/12/27 08:19:15;;;;;;;5.18;2.88;;;;;;;6.66;100.00;98616.72;5063806;28;20045;-47
2021/12/27 08:21:40;;;;;;;4.80;3.50;;;;;;;6.66;100.00;98615.88;5054338;28;20029;-49
2021/12/27 08:24:07;;;;;;;3.97;3.28;;;;;;;6.65;100.00;98614.28;5062385;28;20033;-46
2021/12/27 08:26:33;;;;;;;7.47;4.80;;;;;;;6.64;100.00;98624.00;5067087;28;20086;-48
2021/12/27 08:29:01;;;;;;;6.63;4.13;;;;;;;6.65;100.00;98616.91;5062888;28;20029;-50
2021/12/27 08:31:26;;;;;;;4.60;3.22;;;;;;;6.66;100.00;98626.41;5066415;28;20068;-49
2021/12/27 08:33:52;;;;;;;6.50;4.75;;;;;;;6.68;100.00;98619.91;5062630;28;20498;-49
2021/12/27 08:36:19;;;;;;;4.75;3.25;;;;;;;6.69;100.00;98621.53;5055051;28;20418;-49
2021/12/27 08:38:46;;;;;;;6.10;3.53;;;;;;;6.70;100.00;98612.63;5048592;28;20078;-50
2021/12/27 08:41:12;;;;;;;4.20;3.15;;;;;;;6.72;100.00;98620.31;5055094;28;20508;-50
2021/12/27 08:43:37;;;;;;;4.05;3.33;;;;;;;6.73;100.00;98620.09;5048356;28;20033;-50
2021/12/27 08:46:02;;;;;;;7.75;4.03;;;;;;;6.75;100.00;98620.69;5058459;28;20040;-47
2021/12/27 08:48:28;;;;;;;11.88;6.32;;;;;;;6.77;100.00;98618.66;5066887;28;20512;-52
2021/12/27 08:50:53;;;;;;;8.05;4.15;;;;;;;6.81;100.00;98615.59;5047616;28;20052;-52
2021/12/27 08:53:19;;;;;;;7.05;5.80;;;;;;;6.81;100.00;98613.75;5060376;28;20044;-46
2021/12/27 08:55:44;;;;;;;5.35;4.20;;;;;;;6.83;100.00;98616.19;5060323;28;20025;-49
2021/12/27 08:58:09;;;;;;;6.30;4.03;;;;;;;6.85;100.00;98606.25;5059432;28;20107;-49
2021/12/27 09:00:35;;;;;;;7.00;3.97;;;;;;;6.85;100.00;98607.06;5052905;28;20205;-49
2021/12/27 09:03:00;;;;;;;6.15;4.15;;;;;;;6.88;100.00;98597.94;5057596;28;20025;-48
2021/12/27 09:05:26;;;;;;;8.00;3.83;;;;;;;6.89;100.00;98605.63;5063858;28;20492;-47
2021/12/27 09:07:51;;;;;;;4.75;3.55;;;;;;;6.90;100.00;98596.69;5068031;28;20397;-48
2021/12/27 09:10:17;;;;;;;6.40;3.80;;;;;;;6.91;100.00;98584.31;5065518;28;20404;-50
2021/12/27 09:12:43;;;;;;;3.88;2.78;;;;;;;6.89;100.00;98587.19;5052730;28;20492;-50
2021/12/27 09:15:09;;;;;;;10.88;4.80;;;;;;;6.89;100.00;98581.91;5057809;28;20516;-49
2021/12/27 09:17:35;;;;;;;7.78;4.65;;;;;;;6.90;100.00;98573.00;5053825;28;20029;-49
2021/12/27 09:20:00;;;;;;;6.20;4.03;;;;;;;6.90;100.00;98565.09;5055939;28;20036;-47
2021/12/27 09:22:26;;;;;;;8.23;4.47;;;;;;;6.91;100.00;98571.94;5060101;28;20032;-50
2021/12/27 09:24:51;;;;;;;7.38;4.38;;;;;;;6.90;100.00;98570.34;5055468;28;20042;-50
2021/12/27 09:27:18;;;;;;;3.72;3.33;;;;;;;6.91;100.00;98557.97;5050995;28;20035;-50
2021/12/27 09:29:44;;;;;;;4.57;3.30;;;;;;;6.92;100.00;98557.78;5058094;28;20056;-50
2021/12/27 09:32:11;;;;;;;3.35;2.72;;;;;;;6.95;100.00;98556.53;5058015;28;20029;-49
2021/12/27 09:34:37;;;;;;;6.90;3.40;;;;;;;6.96;100.00;98553.69;5065496;28;20082;-48
2021/12/27 09:37:03;;;;;;;6.07;3.10;;;;;;;6.96;100.00;98548.41;5058228;28;20437;-53
2021/12/27 09:39:29;;;;;;;4.68;3.60;;;;;;;6.98;100.00;98543.72;5052658;28;20060;-48
2021/12/27 09:41:55;;;;;;;4.03;3.65;;;;;;;6.99;100.00;98545.34;5050470;28;20116;-49
2021/12/27 09:44:20;;;;;;;4.72;3.60;;;;;;;7.02;100.00;98540.66;5052459;28;20064;-52
2021/12/27 09:46:46;;;;;;;5.88;3.83;;;;;;;7.03;100.00;98540.47;5048288;28;20033;-51
2021/12/27 09:49:14;;;;;;;2.90;2.63;;;;;;;7.06;100.00;98540.03;5059952;28;20090;-48
2021/12/27 09:51:40;;;;;;;5.28;4.13;;;;;;;7.05;100.00;98537.59;5051078;28;20075;-51
2021/12/27 09:54:06;;;;;;;3.72;2.33;;;;;;;7.07;100.00;98525.00;5064539;28;20116;-52
2021/12/27 09:56:32;;;;;;;3.28;2.97;;;;;;;7.06;100.00;98532.13;5053097;28;20033;-51
2021/12/27 09:58:57;;;;;;;3.78;2.88;;;;;;;7.08;100.00;98529.28;5058100;28;20497;-48
2021/12/27 10:01:23;;;;;;;4.32;2.97;;;;;;;7.09;100.00;98529.03;5056777;28;20024;-51
2021/12/27 10:03:55;;;;;;;4.13;3.60;;;;;;;7.14;100.00;98509.97;5060334;28;20120;-51
2021/12/27 10:06:23;;;;;;;4.22;3.83;;;;;;;7.16;100.00;98514.00;5057089;28;20823;-48
2021/12/27 10:08:52;;;;;;;2.88;2.15;;;;;;;7.17;100.00;98518.22;5060632;28;20405;-47
2021/12/27 10:11:18;;;;;;;3.95;3.15;;;;;;;7.16;100.00;98500.81;5048278;28;20074;-46
2021/12/27 10:14:04;;;;;;;4.63;2.45;;;;;;;7.19;100.00;98504.84;5059208;28;20041;-48
2021/12/27 10:16:31;;;;;;;3.05;2.75;;;;;;;7.20;100.00;98499.38;5046288;28;20035;-48
2021/12/27 10:18:59;;;;;;;8.18;5.03;;;;;;;7.24;100.00;98498.94;5064163;28;20075;-48
2021/12/27 10:21:25;;;;;;;3.10;2.80;;;;;;;7.25;100.00;98497.88;5064592;28;20038;-50
2021/12/27 10:24:04;;;;;;;3.60;2.63;;;;;;;7.29;100.00;98493.81;5065743;28;20037;-47
2021/12/27 10:26:31;;;;;;;4.30;2.85;;;;;;;7.29;100.00;98493.81;5053763;28;20043;-48
2021/12/27 10:29:36;;;;;;;3.88;2.88;;;;;;;7.31;100.00;98491.75;5061785;28;20028;-49
2021/12/27 10:32:13;;;;;;;3.30;2.15;;;;;;;7.32;100.00;98496.00;5048248;28;20045;-48
2021/12/27 10:34:40;;;;;;;4.15;2.10;;;;;;;7.33;100.00;98493.16;5069449;28;20043;-48
2021/12/27 10:37:08;;;;;;;5.15;3.65;;;;;;;7.34;100.00;98486.84;5069735;28;20082;-47
2021/12/27 10:39:49;;;;;;;2.63;2.42;;;;;;;7.34;100.00;98492.13;5067713;28;20533;-46
2021/12/27 10:42:46;;;;;;;2.08;1.98;;;;;;;7.34;100.00;98478.94;5054632;28;20064;-49
2021/12/27 10:45:13;;;;;;;4.35;2.85;;;;;;;7.36;100.00;98478.72;5050207;28;20051;-46
2021/12/27 10:47:41;;;;;;;2.20;2.00;;;;;;;7.39;100.00;98473.81;5062972;28;20032;-49
2021/12/27 10:50:14;;;;;;;5.38;2.90;;;;;;;7.40;100.00;98462.22;5066382;28;20028;-48
2021/12/27 10:52:42;;;;;;;7.28;2.70;;;;;;;7.43;100.00;98458.34;5058677;28;20039;-47
2021/12/27 10:55:07;;;;;;;2.97;1.85;;;;;;;7.45;100.00;98450.25;5055706;28;20068;-49
2021/12/27 10:57:33;;;;;;;3.65;2.53;;;;;;;7.51;100.00;98458.09;5060861;28;20067;-50
2021/12/27 11:00:17;;;;;;;1.52;1.42;;;;;;;7.57;100.00;98451.13;5068986;28;20093;-51
2021/12/27 11:02:43;;;;;;;3.20;1.45;;;;;;;7.61;100.00;98455.72;5054708;28;20043;-50
2021/12/27 11:05:16;;;;;;;2.70;1.70;;;;;;;7.66;100.00;98462.97;5055648;28;20064;-48
2021/12/27 11:07:42;;;;;;;3.75;1.83;;;;;;;7.69;100.00;98459.88;5057629;28;20028;-46
2021/12/27 11:10:08;;;;;;;2.83;2.00;;;;;;;7.74;100.00;98461.84;5059056;28;20404;-49
2021/12/27 11:12:33;;;;;;;2.72;1.77;;;;;;;7.75;100.00;98448.47;5061564;28;20031;-47
2021/12/27 11:14:59;;;;;;;4.72;1.88;;;;;;;7.74;100.00;98443.41;5068348;28;20390;-50
2021/12/27 11:17:24;;;;;;;1.15;1.05;;;;;;;7.75;100.00;98437.91;5062857;28;20033;-47
2021/12/27 11:19:50;;;;;;;1.75;1.63;;;;;;;7.74;100.00;98438.13;5058548;28;20106;-49
2021/12/27 11:22:15;;;;;;;4.68;2.10;;;;;;;7.78;100.00;98437.47;5054548;28;20044;-49
2021/12/27 11:24:43;;;;;;;2.25;1.42;;;;;;;7.78;100.00;98432.19;5059649;28;20031;-48
2021/12/27 11:27:13;;;;;;;1.38;1.17;;;;;;;7.80;100.00;98432.78;5052472;28;20185;-51
2021/12/27 11:29:39;;;;;;;2.08;1.38;;;;;;;7.82;100.00;98429.88;5066575;28;20032;-49
2021/12/27 11:32:16;;;;;;;1.13;0.80;;;;;;;7.82;100.00;98435.16;5067306;28;20409;-48
2021/12/27 11:34:54;;;;;;;1.13;1.00;;;;;;;7.91;100.00;98425.94;5058962;28;20056;-46